createdAt,value
2018-09-09T00:03:03.557Z,101432.28
2018-09-09T00:06:07.957Z,101434.13
2018-09-09T00:09:16.322Z,101438.11
2018-09-09T00:12:21.099Z,101437.20
2018-09-09T00:15:25.435Z,101433.37
2018-09-09T00:18:29.712Z,101440.30
2018-09-09T00:21:33.969Z,101438.52
2018-09-09T00:24:38.245Z,101448.48
2018-09-09T00:27:42.492Z,101441.08
2018-09-09T00:30:46.777Z,101445.95
2018-09-09T00:33:50.993Z,101440.77
2018-09-09T00:36:55.330Z,101448.61
2018-09-09T00:39:59.558Z,101452.56
2018-09-09T00:43:03.893Z,101446.55
2018-09-09T00:46:08.117Z,101448.34
2018-09-09T00:49:17.635Z,101449.16
2018-09-09T00:52:27.055Z,101447.47
2018-09-09T00:55:31.601Z,101453.13
2018-09-09T00:58:35.942Z,101447.91
2018-09-09T01:01:40.256Z,101448.30
2018-09-09T01:04:44.597Z,101452.66
2018-09-09T01:07:48.918Z,101444.77
2018-09-09T01:10:53.253Z,101449.56
2018-09-09T01:13:57.671Z,101450.34
2018-09-09T01:17:01.953Z,101449.44
2018-09-09T01:20:06.302Z,101442.47
2018-09-09T01:23:10.585Z,101450.30
2018-09-09T01:26:14.978Z,101447.66
2018-09-09T01:29:19.351Z,101445.48
2018-09-09T01:32:23.685Z,101446.34
2018-09-09T01:35:27.959Z,101440.25
2018-09-09T01:38:32.290Z,101447.17
2018-09-09T01:41:36.634Z,101442.82
2018-09-09T01:44:40.929Z,101439.81
2018-09-09T01:47:45.245Z,101447.13
2018-09-09T01:50:49.590Z,101441.47
2018-09-09T01:53:53.841Z,101438.04
2018-09-09T01:56:58.128Z,101441.12
2018-09-09T02:00:02.386Z,101442.86
2018-09-09T02:03:06.764Z,101441.95
2018-09-09T02:06:11.167Z,101441.95
2018-09-09T02:09:15.497Z,101435.86
2018-09-09T02:12:19.762Z,101439.30
2018-09-09T02:15:24.166Z,101441.81
2018-09-09T02:18:28.696Z,101436.98
2018-09-09T02:21:32.965Z,101440.86
2018-09-09T02:24:37.270Z,101437.81
2018-09-09T02:27:41.557Z,101434.77
2018-09-09T02:30:45.816Z,101432.11
2018-09-09T02:33:50.092Z,101431.29
2018-09-09T02:36:54.357Z,101424.33
2018-09-09T02:39:58.670Z,101426.94
2018-09-09T02:43:03.140Z,101424.24
2018-09-09T02:46:07.536Z,101423.41
2018-09-09T02:49:11.788Z,101429.59
2018-09-09T02:52:16.071Z,101423.94
2018-09-09T02:55:20.373Z,101430.51
2018-09-09T02:58:24.700Z,101427.89
2018-09-09T03:01:28.937Z,101431.50
2018-09-09T03:04:33.364Z,101426.64
2018-09-09T03:07:37.664Z,101429.72
2018-09-09T03:10:42.030Z,101429.77
2018-09-09T03:13:46.754Z,101432.38
2018-09-09T03:16:51.053Z,101437.16
2018-09-09T03:19:55.344Z,101433.30
2018-09-09T03:22:59.647Z,101433.25
2018-09-09T03:26:03.899Z,101434.51
2018-09-09T03:29:08.229Z,101437.95
2018-09-09T03:32:12.548Z,101430.03
2018-09-09T03:35:16.872Z,101437.42
2018-09-09T03:38:21.395Z,101436.98
2018-09-09T03:41:25.716Z,101439.21
2018-09-09T03:44:29.976Z,101441.47
2018-09-09T03:47:34.362Z,101442.69
2018-09-09T03:50:38.674Z,101434.77
2018-09-09T03:53:42.952Z,101443.08
2018-09-09T03:56:47.301Z,101443.03
2018-09-09T03:59:51.628Z,101430.86
2018-09-09T04:02:55.898Z,101432.63
2018-09-09T04:06:00.230Z,101431.72
2018-09-09T04:09:05.814Z,101431.67
2018-09-09T04:12:10.141Z,101437.77
2018-09-09T04:15:14.396Z,101439.08
2018-09-09T04:18:18.751Z,101444.30
2018-09-09T04:21:23.093Z,101452.61
2018-09-09T04:24:27.379Z,101453.95
2018-09-09T04:27:31.714Z,101454.88
2018-09-09T04:30:36.067Z,101457.91
2018-09-09T04:33:40.439Z,101452.69
2018-09-09T04:36:44.801Z,101462.79
2018-09-09T04:39:49.403Z,101446.55
2018-09-09T04:42:53.757Z,101458.30
2018-09-09T04:45:58.026Z,101448.73
2018-09-09T04:49:02.391Z,101453.52
2018-09-09T04:52:06.684Z,101456.39
2018-09-09T04:55:11.042Z,101453.16
2018-09-09T04:58:15.316Z,101455.77
2018-09-09T05:01:19.645Z,101460.08
2018-09-09T05:04:23.953Z,101461.38
2018-09-09T05:07:28.313Z,101461.78
2018-09-09T05:10:32.697Z,101468.34
2018-09-09T05:13:37.017Z,101464.82
2018-09-09T05:16:41.349Z,101467.91
2018-09-09T05:19:45.700Z,101471.91
2018-09-09T05:22:49.968Z,101466.25
2018-09-09T05:25:54.229Z,101465.03
2018-09-09T05:28:58.529Z,101456.33
2018-09-09T05:32:02.791Z,101452.42
2018-09-09T05:35:07.300Z,101464.30
2018-09-09T05:38:11.577Z,101456.91
2018-09-09T05:41:15.896Z,101458.66
2018-09-09T05:44:20.251Z,101458.31
2018-09-09T05:47:24.555Z,101456.17
2018-09-09T05:50:28.888Z,101453.70
2018-09-09T05:53:33.172Z,101459.88
2018-09-09T05:56:37.527Z,101467.41
2018-09-09T05:59:41.857Z,101460.45
2018-09-09T06:02:46.090Z,101458.74
2018-09-09T06:05:50.501Z,101468.41
2018-09-09T06:08:54.801Z,101470.14
2018-09-09T06:11:59.104Z,101457.53
2018-09-09T06:15:03.469Z,101469.28
2018-09-09T06:18:08.064Z,101474.45
2018-09-09T06:21:12.385Z,101480.11
2018-09-09T06:24:16.684Z,101486.16
2018-09-09T06:27:20.975Z,101497.39
2018-09-09T06:30:25.235Z,101494.34
2018-09-09T06:33:29.572Z,101491.69
2018-09-09T06:36:33.788Z,101506.05
2018-09-09T06:39:38.073Z,101503.88
2018-09-09T06:42:42.338Z,101493.91
2018-09-09T06:45:46.633Z,101493.83
2018-09-09T06:48:50.915Z,101495.66
2018-09-09T06:51:55.220Z,101491.17
2018-09-09T06:54:59.514Z,101488.02
2018-09-09T06:58:03.863Z,101489.55
2018-09-09T07:01:08.124Z,101501.66
2018-09-09T07:04:13.241Z,101489.56
2018-09-09T07:07:17.597Z,101491.44
2018-09-09T07:10:22.171Z,101492.58
2018-09-09T07:13:26.474Z,101502.77
2018-09-09T07:16:30.767Z,101506.70
2018-09-09T07:19:35.076Z,101511.52
2018-09-09T07:22:39.484Z,101510.22
2018-09-09T07:25:43.747Z,101511.18
2018-09-09T07:28:48.086Z,101506.91
2018-09-09T07:31:52.553Z,101503.09
2018-09-09T07:34:56.796Z,101511.01
2018-09-09T07:38:01.109Z,101511.45
2018-09-09T07:41:05.426Z,101510.98
2018-09-09T07:44:09.701Z,101512.70
2018-09-09T07:47:13.975Z,101510.42
2018-09-09T07:50:18.243Z,101516.62
2018-09-09T07:53:22.546Z,101521.95
2018-09-09T07:56:26.917Z,101529.53
2018-09-09T07:59:31.261Z,101520.31
2018-09-09T08:02:35.546Z,101525.17
2018-09-09T08:05:39.807Z,101526.12
2018-09-09T08:08:44.203Z,101534.03
2018-09-09T08:11:48.576Z,101525.73
2018-09-09T08:14:52.861Z,101537.27
2018-09-09T08:17:57.185Z,101540.02
2018-09-09T08:21:01.510Z,101535.28
2018-09-09T08:24:05.852Z,101536.20
2018-09-09T08:27:10.175Z,101548.91
2018-09-09T08:30:14.498Z,101552.03
2018-09-09T08:33:18.800Z,101547.78
2018-09-09T08:36:23.116Z,101560.16
2018-09-09T08:39:27.414Z,101548.36
2018-09-09T08:42:31.680Z,101557.88
2018-09-09T08:45:36.040Z,101558.72
2018-09-09T08:48:40.294Z,101564.43
2018-09-09T08:51:44.631Z,101564.61
2018-09-09T08:54:48.978Z,101569.03
2018-09-09T08:57:53.271Z,101571.12
2018-09-09T09:00:57.585Z,101572.74
2018-09-09T09:04:01.882Z,101574.02
2018-09-09T09:07:06.545Z,101570.46
2018-09-09T09:10:10.861Z,101574.86
2018-09-09T09:13:15.213Z,101563.61
2018-09-09T09:16:19.503Z,101568.20
2018-09-09T09:19:23.931Z,101571.89
2018-09-09T09:22:28.229Z,101576.78
2018-09-09T09:25:32.682Z,101575.10
2018-09-09T09:28:37.078Z,101576.02
2018-09-09T09:31:41.410Z,101571.67
2018-09-09T09:34:45.695Z,101572.54
2018-09-09T09:37:50.004Z,101573.87
2018-09-09T09:40:54.462Z,101580.52
2018-09-09T09:43:58.776Z,101591.47
2018-09-09T09:47:03.037Z,101586.20
2018-09-09T09:50:07.389Z,101574.83
2018-09-09T09:53:11.791Z,101575.25
2018-09-09T09:56:16.082Z,101580.97
2018-09-09T09:59:20.360Z,101577.02
2018-09-09T10:02:24.657Z,101580.52
2018-09-09T10:05:28.980Z,101585.34
2018-09-09T10:08:33.288Z,101593.67
2018-09-09T10:11:37.562Z,101587.08
2018-09-09T10:14:42.278Z,101583.98
2018-09-09T10:17:46.543Z,101590.13
2018-09-09T10:20:50.921Z,101586.58
2018-09-09T10:23:55.258Z,101584.33
2018-09-09T10:26:59.544Z,101579.92
2018-09-09T10:30:03.937Z,101585.98
2018-09-09T10:33:08.152Z,101582.09
2018-09-09T10:36:12.514Z,101582.63
2018-09-09T10:39:16.849Z,101576.02
2018-09-09T10:42:21.144Z,101586.48
2018-09-09T10:45:25.474Z,101584.70
2018-09-09T10:48:29.759Z,101586.53
2018-09-09T10:51:34.108Z,101595.59
2018-09-09T10:54:38.426Z,101583.67
2018-09-09T10:57:42.709Z,101593.69
2018-09-09T11:00:47.047Z,101592.28
2018-09-09T11:03:51.413Z,101601.65
2018-09-09T11:06:56.653Z,101604.45
2018-09-09T11:10:00.981Z,101601.76
2018-09-09T11:13:05.375Z,101595.99
2018-09-09T11:16:09.804Z,101600.00
2018-09-09T11:19:14.110Z,101600.45
2018-09-09T11:22:18.588Z,101600.42
2018-09-09T11:25:22.900Z,101604.77
2018-09-09T11:28:27.350Z,101608.23
2018-09-09T11:31:31.687Z,101605.58
2018-09-09T11:34:35.965Z,101605.39
2018-09-09T11:37:40.222Z,101615.26
2018-09-09T11:40:44.573Z,101603.66
2018-09-09T11:43:48.848Z,101615.50
2018-09-09T11:46:53.191Z,101608.27
2018-09-09T11:49:57.518Z,101611.94
2018-09-09T11:53:01.874Z,101616.92
2018-09-09T11:56:06.404Z,101618.29
2018-09-09T11:59:11.447Z,101625.18
2018-09-09T12:02:15.795Z,101618.28
2018-09-09T12:05:20.154Z,101615.09
2018-09-09T12:08:24.444Z,101619.77
2018-09-09T12:11:28.782Z,101612.87
2018-09-09T12:14:33.129Z,101612.30
2018-09-09T12:17:37.425Z,101604.98
2018-09-09T12:20:41.860Z,101611.95
2018-09-09T12:23:46.249Z,101614.44
2018-09-09T12:26:50.556Z,101618.33
2018-09-09T12:29:54.894Z,101613.61
2018-09-09T12:32:59.249Z,101612.87
2018-09-09T12:36:03.581Z,101621.70
2018-09-09T12:39:08.844Z,101609.80
2018-09-09T12:42:13.210Z,101620.95
2018-09-09T12:45:22.834Z,101618.30
2018-09-09T12:48:32.447Z,101622.55
2018-09-09T12:51:36.900Z,101624.30
2018-09-09T12:54:41.255Z,101623.43
2018-09-09T12:57:45.575Z,101627.75
2018-09-09T13:00:50.056Z,101621.65
2018-09-09T13:03:54.397Z,101625.04
2018-09-09T13:06:58.715Z,101626.13
2018-09-09T13:10:02.982Z,101631.91
2018-09-09T13:13:12.486Z,101630.28
2018-09-09T13:16:16.855Z,101626.87
2018-09-09T13:19:21.211Z,101631.97
2018-09-09T13:22:25.479Z,101629.94
2018-09-09T13:25:29.875Z,101631.56
2018-09-09T13:28:34.152Z,101638.27
2018-09-09T13:31:38.495Z,101636.24
2018-09-09T13:34:42.861Z,101639.48
2018-09-09T13:37:47.215Z,101636.08
2018-09-09T13:40:51.526Z,101638.72
2018-09-09T13:43:55.812Z,101642.28
2018-09-09T13:47:00.158Z,101639.30
2018-09-09T13:50:04.670Z,101641.17
2018-09-09T13:53:09.145Z,101642.96
2018-09-09T13:56:13.456Z,101638.13
2018-09-09T13:59:17.837Z,101638.13
2018-09-09T14:02:22.190Z,101638.53
2018-09-09T14:05:26.556Z,101634.75
2018-09-09T14:08:30.917Z,101640.17
2018-09-09T14:11:35.243Z,101651.27
2018-09-09T14:14:39.596Z,101652.78
2018-09-09T14:17:43.863Z,101649.14
2018-09-09T14:20:48.193Z,101649.31
2018-09-09T14:23:52.516Z,101655.92
2018-09-09T14:26:56.960Z,101654.60
2018-09-09T14:30:01.346Z,101662.62
2018-09-09T14:33:05.935Z,101655.77
2018-09-09T14:36:10.400Z,101663.80
2018-09-09T14:39:14.688Z,101661.67
2018-09-09T14:42:18.989Z,101657.30
2018-09-09T14:45:23.401Z,101665.08
2018-09-09T14:48:27.801Z,101662.86
2018-09-09T14:51:32.075Z,101660.10
2018-09-09T14:54:36.385Z,101663.19
2018-09-09T14:57:40.709Z,101659.27
2018-09-09T15:00:45.048Z,101675.64
2018-09-09T15:03:49.396Z,101670.08
2018-09-09T15:06:53.884Z,101675.39
2018-09-09T15:09:58.275Z,101674.52
2018-09-09T15:13:02.665Z,101681.13
2018-09-09T15:16:07.029Z,101683.60
2018-09-09T15:19:11.377Z,101684.92
2018-09-09T15:22:15.678Z,101682.31
2018-09-09T15:25:20.010Z,101680.58
2018-09-09T15:28:24.618Z,101682.41
2018-09-09T15:31:28.980Z,101684.84
2018-09-09T15:34:33.405Z,101681.77
2018-09-09T15:37:37.689Z,101685.75
2018-09-09T15:40:41.985Z,101691.13
2018-09-09T15:43:46.358Z,101688.98
2018-09-09T15:46:50.672Z,101683.80
2018-09-09T15:49:54.981Z,101686.91
2018-09-09T15:52:59.599Z,101686.45
2018-09-09T15:56:03.910Z,101682.97
2018-09-09T15:59:08.223Z,101681.70
2018-09-09T16:02:12.491Z,101689.59
2018-09-09T16:05:16.799Z,101690.50
2018-09-09T16:08:21.210Z,101687.02
2018-09-09T16:11:25.544Z,101687.92
2018-09-09T16:14:29.939Z,101682.64
2018-09-09T16:17:34.372Z,101672.55
2018-09-09T16:20:38.689Z,101675.62
2018-09-09T16:23:43.011Z,101674.77
2018-09-09T16:26:47.321Z,101673.89
2018-09-09T16:29:51.659Z,101673.87
2018-09-09T16:32:56.004Z,101673.44
2018-09-09T16:36:00.280Z,101674.31
2018-09-09T16:39:05.786Z,101675.17
2018-09-09T16:42:10.132Z,101673.86
2018-09-09T16:45:14.503Z,101673.43
2018-09-09T16:48:18.947Z,101665.50
2018-09-09T16:51:23.327Z,101667.70
2018-09-09T16:54:27.767Z,101670.77
2018-09-09T16:57:32.500Z,101667.63
2018-09-09T17:00:37.661Z,101664.86
2018-09-09T17:03:41.972Z,101669.92
2018-09-09T17:06:46.312Z,101671.25
2018-09-09T17:09:50.762Z,101664.34
2018-09-09T17:12:55.195Z,101668.41
2018-09-09T17:15:59.595Z,101669.84
2018-09-09T17:19:04.210Z,101671.17
2018-09-09T17:22:08.743Z,101674.31
2018-09-09T17:25:13.198Z,101672.58
2018-09-09T17:28:17.629Z,101672.17
2018-09-09T17:31:22.654Z,101676.14
2018-09-09T17:34:26.956Z,101672.16
2018-09-09T17:37:31.403Z,101665.17
2018-09-09T17:40:36.097Z,101673.92
2018-09-09T17:43:40.852Z,101672.18
2018-09-09T17:46:45.214Z,101665.59
2018-09-09T17:49:49.723Z,101662.95
2018-09-09T17:52:54.171Z,101661.17
2018-09-09T17:55:59.004Z,101662.89
2018-09-09T17:59:03.458Z,101662.88
2018-09-09T18:02:07.885Z,101667.17
2018-09-09T18:05:12.221Z,101671.97
2018-09-09T18:08:16.637Z,101675.45
2018-09-09T18:11:21.252Z,101671.48
2018-09-09T18:14:25.595Z,101667.95
2018-09-09T18:17:30.080Z,101669.67
2018-09-09T18:20:34.475Z,101671.83
2018-09-09T18:23:38.988Z,101674.00
2018-09-09T18:26:43.550Z,101685.80
2018-09-09T18:29:48.092Z,101680.52
2018-09-09T18:32:52.877Z,101673.46
2018-09-09T18:35:57.400Z,101677.80
2018-09-09T18:39:02.124Z,101682.56
2018-09-09T18:42:06.538Z,101679.03
2018-09-09T18:45:11.077Z,101687.78
2018-09-09T18:48:15.646Z,101682.08
2018-09-09T18:51:20.107Z,101683.82
2018-09-09T18:54:24.763Z,101676.78
2018-09-09T18:57:29.429Z,101680.65
2018-09-09T19:00:33.873Z,101675.34
2018-09-09T19:03:38.483Z,101666.55
2018-09-09T19:06:43.053Z,101675.70
2018-09-09T19:09:47.681Z,101672.56
2018-09-09T19:12:52.635Z,101666.38
2018-09-09T19:15:57.143Z,101667.63
2018-09-09T19:19:01.707Z,101664.55
2018-09-09T19:22:06.594Z,101668.86
2018-09-09T19:25:12.293Z,101667.53
2018-09-09T19:28:16.858Z,101666.63
2018-09-09T19:31:21.920Z,101667.48
2018-09-09T19:34:26.495Z,101666.61
2018-09-09T19:37:31.123Z,101663.55
2018-09-09T19:40:35.823Z,101658.30
2018-09-09T19:43:40.516Z,101656.17
2018-09-09T19:46:45.293Z,101649.20
2018-09-09T19:49:49.967Z,101652.70
2018-09-09T19:52:54.774Z,101650.97
2018-09-09T19:55:59.327Z,101646.20
2018-09-09T19:59:03.716Z,101642.30
2018-09-09T20:02:08.175Z,101643.16
2018-09-09T20:05:12.553Z,101647.97
2018-09-09T20:08:17.008Z,101638.77
2018-09-09T20:11:21.400Z,101635.75
2018-09-09T20:14:25.840Z,101636.67
2018-09-09T20:17:30.191Z,101631.41
2018-09-09T20:20:34.829Z,101635.36
2018-09-09T20:23:39.228Z,101631.91
2018-09-09T20:26:43.582Z,101636.73
2018-09-09T20:29:48.047Z,101628.47
2018-09-09T20:32:52.397Z,101617.55
2018-09-09T20:35:56.724Z,101610.53
2018-09-09T20:39:01.101Z,101616.69
2018-09-09T20:42:05.446Z,101615.39
2018-09-09T20:45:09.869Z,101616.30
2018-09-09T20:48:14.214Z,101614.13
2018-09-09T20:51:18.527Z,101612.81
2018-09-09T20:54:22.854Z,101612.83
2018-09-09T20:57:27.194Z,101616.77
2018-09-09T21:00:32.608Z,101622.46
2018-09-09T21:03:36.967Z,101612.41
2018-09-09T21:06:41.344Z,101605.38
2018-09-09T21:09:45.642Z,101617.63
2018-09-09T21:12:49.993Z,101614.97
2018-09-09T21:15:54.336Z,101615.82
2018-09-09T21:18:58.611Z,101611.41
2018-09-09T21:22:02.918Z,101608.31
2018-09-09T21:25:07.268Z,101613.13
2018-09-09T21:28:11.751Z,101607.40
2018-09-09T21:31:16.103Z,101604.74
2018-09-09T21:34:20.436Z,101607.30
2018-09-09T21:37:24.944Z,101601.19
2018-09-09T21:40:29.402Z,101601.19
2018-09-09T21:43:33.790Z,101600.27
2018-09-09T21:46:38.251Z,101607.23
2018-09-09T21:49:42.655Z,101600.66
2018-09-09T21:52:46.974Z,101594.52
2018-09-09T21:55:51.466Z,101589.67
2018-09-09T21:58:55.862Z,101587.89
2018-09-09T22:02:05.386Z,101584.88
2018-09-09T22:05:09.816Z,101582.68
2018-09-09T22:08:14.195Z,101583.14
2018-09-09T22:11:18.524Z,101577.50
2018-09-09T22:14:22.995Z,101580.16
2018-09-09T22:17:27.389Z,101580.14
2018-09-09T22:20:31.800Z,101572.67
2018-09-09T22:23:36.740Z,101573.50
2018-09-09T22:26:40.981Z,101563.39
2018-09-09T22:29:45.367Z,101561.60
2018-09-09T22:32:49.681Z,101559.80
2018-09-09T22:35:54.256Z,101553.21
2018-09-09T22:38:58.544Z,101555.34
2018-09-09T22:42:02.958Z,101556.61
2018-09-09T22:45:07.284Z,101550.47
2018-09-09T22:48:12.356Z,101545.23
2018-09-09T22:51:16.717Z,101544.77
2018-09-09T22:54:21.049Z,101541.67
2018-09-09T22:57:25.417Z,101535.44
2018-09-09T23:00:29.757Z,101535.44
2018-09-09T23:03:34.011Z,101531.95
2018-09-09T23:06:38.331Z,101534.59
2018-09-09T23:09:42.625Z,101526.81
2018-09-09T23:12:46.965Z,101522.45
2018-09-09T23:15:51.183Z,101518.09
2018-09-09T23:18:55.613Z,101509.23
2018-09-09T23:21:59.933Z,101511.86
2018-09-09T23:25:04.361Z,101513.59
2018-09-09T23:28:08.648Z,101504.84
2018-09-09T23:31:12.993Z,101502.72
2018-09-09T23:34:18.202Z,101501.92
2018-09-09T23:37:22.489Z,101505.44
2018-09-09T23:40:26.831Z,101499.79
2018-09-09T23:43:31.129Z,101492.81
2018-09-09T23:46:35.534Z,101482.34
2018-09-09T23:49:39.833Z,101485.88
2018-09-09T23:52:44.109Z,101490.68
2018-09-09T23:55:48.466Z,101498.98
2018-09-09T23:58:52.939Z,101493.67
